createdAt,value
2019-03-15T00:04:00.761Z,99.9
2019-03-15T00:09:03.213Z,99.9
2019-03-15T00:14:05.699Z,99.9
2019-03-15T00:19:08.149Z,99.9
2019-03-15T00:24:10.604Z,99.9
2019-03-15T00:29:13.072Z,99.9
2019-03-15T00:34:16.614Z,99.9
2019-03-15T00:39:18.029Z,99.9
2019-03-15T00:44:20.426Z,99.9
2019-03-15T00:49:22.970Z,99.9
2019-03-15T00:54:25.363Z,99.9
2019-03-15T00:59:27.821Z,99.9
2019-03-15T01:04:30.268Z,99.9
2019-03-15T01:09:32.747Z,99.9
2019-03-15T01:14:35.196Z,99.9
2019-03-15T01:19:37.610Z,99.9
2019-03-15T01:24:40.111Z,99.9
2019-03-15T01:29:42.629Z,99.9
2019-03-15T01:34:45.060Z,99.9
2019-03-15T01:39:47.494Z,99.9
2019-03-15T01:44:49.958Z,99.9
2019-03-15T01:49:52.446Z,99.9
2019-03-15T01:54:54.960Z,99.9
2019-03-15T01:59:57.282Z,99.9
2019-03-15T02:04:59.727Z,99.9
2019-03-15T02:10:07.214Z,99.9
2019-03-15T02:15:04.673Z,99.9
2019-03-15T02:20:07.106Z,99.9
2019-03-15T02:25:09.609Z,99.9
2019-03-15T02:30:12.031Z,99.9
2019-03-15T02:35:14.512Z,99.9
2019-03-15T02:40:17.298Z,99.9
2019-03-15T02:45:19.396Z,99.9
2019-03-15T02:50:21.851Z,99.9
2019-03-15T02:55:24.340Z,99.9
2019-03-15T03:00:26.770Z,99.9
2019-03-15T03:05:29.221Z,99.9
2019-03-15T03:10:31.680Z,99.9
2019-03-15T03:15:34.214Z,99.9
2019-03-15T03:20:36.600Z,99.9
2019-03-15T03:25:39.055Z,99.9
2019-03-15T03:30:41.531Z,99.9
2019-03-15T03:35:44.015Z,99.9
2019-03-15T03:40:46.520Z,99.9
2019-03-15T03:45:48.961Z,99.9
2019-03-15T03:50:51.338Z,99.9
2019-03-15T03:55:54.040Z,99.9
2019-03-15T04:00:56.249Z,99.9
2019-03-15T04:05:58.745Z,99.9
2019-03-15T04:11:01.502Z,99.9
2019-03-15T04:16:03.687Z,99.9
2019-03-15T04:21:06.191Z,99.9
2019-03-15T04:26:08.622Z,99.9
2019-03-15T04:31:11.031Z,99.9
2019-03-15T04:36:13.449Z,99.9
2019-03-15T04:41:16.192Z,99.9
2019-03-15T04:46:18.429Z,99.9
2019-03-15T04:51:20.819Z,99.9
2019-03-15T04:56:23.370Z,99.9
2019-03-15T05:01:25.736Z,99.9
2019-03-15T05:06:28.179Z,99.9
2019-03-15T05:11:30.905Z,99.9
2019-03-15T05:16:33.137Z,99.9
2019-03-15T05:21:35.604Z,99.9
2019-03-15T05:26:38.026Z,99.9
2019-03-15T05:31:40.556Z,99.9
2019-03-15T05:36:43.071Z,99.9
2019-03-15T05:41:45.408Z,99.9
2019-03-15T05:46:47.870Z,99.9
2019-03-15T05:51:50.345Z,99.9
2019-03-15T05:56:52.800Z,99.9
2019-03-15T06:01:55.229Z,99.9
2019-03-15T06:06:57.790Z,99.9
2019-03-15T06:12:00.411Z,99.9
2019-03-15T06:17:02.795Z,99.9
2019-03-15T06:22:05.152Z,99.9
2019-03-15T06:27:07.502Z,99.9
2019-03-15T06:32:10.029Z,99.9
2019-03-15T06:37:12.505Z,99.9
2019-03-15T06:42:14.914Z,99.9
2019-03-15T06:47:17.406Z,99.9
2019-03-15T06:52:19.834Z,99.9
2019-03-15T06:57:22.267Z,99.9
2019-03-15T07:02:24.723Z,99.9
2019-03-15T07:07:27.171Z,99.9
2019-03-15T07:12:29.965Z,90.1
2019-03-15T07:17:32.126Z,90.6
2019-03-15T07:22:34.574Z,77.2
2019-03-15T07:27:37.021Z,60.2
2019-03-15T07:32:39.677Z,1
2019-03-15T07:37:45.033Z,1
2019-03-15T07:42:44.430Z,1
2019-03-15T07:47:46.937Z,1
2019-03-15T07:52:49.292Z,1
2019-03-15T07:57:51.804Z,1
2019-03-15T08:02:54.209Z,1
2019-03-15T08:07:56.671Z,1
2019-03-15T08:12:59.146Z,1
2019-03-15T08:18:01.595Z,1
2019-03-15T08:23:04.040Z,1
2019-03-15T08:28:06.597Z,1
2019-03-15T08:33:10.309Z,1
2019-03-15T08:38:11.431Z,1
2019-03-15T08:43:13.872Z,1
2019-03-15T08:48:16.487Z,1
2019-03-15T08:53:18.810Z,1
2019-03-15T08:58:22.197Z,1
2019-03-15T09:03:28.128Z,1
2019-03-15T09:08:26.158Z,1
2019-03-15T09:13:28.749Z,1
2019-03-15T09:18:31.084Z,1
2019-03-15T09:23:33.597Z,1
2019-03-15T09:28:36.003Z,1
2019-03-15T09:33:38.442Z,1
2019-03-15T09:38:41.204Z,1
2019-03-15T09:43:45.296Z,1
2019-03-15T09:48:45.911Z,1
2019-03-15T09:53:48.311Z,1
2019-03-15T09:58:50.729Z,1
2019-03-15T10:03:53.187Z,1
2019-03-15T10:08:55.676Z,1
2019-03-15T10:13:58.110Z,1
2019-03-15T10:19:00.684Z,1
2019-03-15T10:24:03.027Z,1
2019-03-15T10:29:14.995Z,1
2019-03-15T10:34:07.937Z,1
2019-03-15T10:39:10.391Z,1
2019-03-15T10:44:12.858Z,1
2019-03-15T10:49:15.416Z,1
2019-03-15T10:54:17.895Z,1
2019-03-15T10:59:20.236Z,1
2019-03-15T11:04:22.701Z,1
2019-03-15T11:09:25.126Z,1
2019-03-15T11:14:27.715Z,1
2019-03-15T11:19:30.360Z,1
2019-03-15T11:24:32.536Z,1
2019-03-15T11:29:34.995Z,1
2019-03-15T11:34:37.417Z,1
2019-03-15T11:39:39.925Z,1.1
2019-03-15T11:44:42.441Z,1
2019-03-15T11:49:45.125Z,1
2019-03-15T11:54:49.726Z,1
2019-03-15T11:59:49.735Z,1
2019-03-15T12:04:52.175Z,1
2019-03-15T12:09:54.624Z,1
2019-03-15T12:14:57.186Z,6.8
2019-03-15T12:19:59.627Z,9.5
2019-03-15T12:25:02.332Z,30.6
2019-03-15T12:30:04.503Z,27.8
2019-03-15T12:40:09.394Z,29.1
2019-03-15T12:45:11.916Z,76.4
2019-03-15T12:50:14.336Z,95.5
2019-03-15T12:55:16.735Z,99.9
2019-03-15T13:00:19.294Z,99.9
2019-03-15T13:05:21.668Z,99.9
2019-03-15T13:10:24.107Z,99.9
2019-03-15T13:15:26.591Z,99.9
2019-03-15T13:20:29.044Z,99.9
2019-03-15T13:25:31.494Z,99.9
2019-03-15T13:35:41.447Z,99.9
2019-03-15T13:40:38.970Z,99.9
2019-03-15T13:45:41.764Z,99.9
2019-03-15T13:50:43.887Z,99.9
2019-03-15T13:55:46.358Z,99.9
2019-03-15T14:00:48.770Z,99.9
2019-03-15T14:05:51.146Z,99.9
2019-03-15T14:10:53.814Z,99.9
2019-03-15T14:20:58.516Z,99.9
2019-03-15T14:26:00.983Z,99.9
2019-03-15T14:31:03.442Z,99.9
2019-03-15T14:36:05.893Z,99.9
2019-03-15T14:41:08.805Z,99.9
2019-03-15T14:46:12.107Z,99.9
2019-03-15T14:51:13.544Z,99.9
2019-03-15T14:56:16.139Z,99.9
2019-03-15T15:01:18.269Z,99.9
2019-03-15T15:06:20.713Z,99.9
2019-03-15T15:11:25.523Z,99.9
2019-03-15T15:16:25.547Z,99.9
2019-03-15T15:21:28.032Z,99.9
2019-03-15T15:26:30.469Z,99.9
2019-03-15T15:31:32.909Z,99.9
2019-03-15T15:36:35.435Z,99.9
2019-03-15T15:41:37.837Z,99.9
2019-03-15T15:46:40.301Z,99.9
2019-03-15T15:51:43.051Z,99.9
2019-03-15T15:56:45.213Z,99.9
2019-03-15T16:01:47.827Z,99.9
2019-03-15T16:06:50.144Z,99.9
2019-03-15T16:11:52.598Z,99.9
2019-03-15T16:16:55.098Z,99.9
2019-03-15T16:21:57.494Z,99.9
2019-03-15T16:26:59.947Z,99.9
2019-03-15T16:32:02.435Z,99.9
2019-03-15T16:37:04.875Z,99.9
2019-03-15T16:42:07.331Z,99.9
2019-03-15T16:47:09.777Z,99.9
2019-03-15T16:52:12.259Z,99.9
2019-03-15T16:57:14.694Z,99.9
2019-03-15T17:02:17.164Z,99.9
2019-03-15T17:07:19.611Z,99.9
2019-03-15T17:12:22.072Z,99.9
2019-03-15T17:17:24.805Z,99.9
2019-03-15T17:22:27.023Z,99.9
2019-03-15T17:27:29.472Z,99.9
2019-03-15T17:32:31.887Z,99.9
2019-03-15T17:37:34.377Z,99.9
2019-03-15T17:42:36.840Z,99.9
2019-03-15T17:47:39.261Z,99.9
2019-03-15T17:52:41.743Z,99.9
2019-03-15T17:57:45.746Z,99.9
2019-03-15T18:02:46.694Z,99.9
2019-03-15T18:07:49.107Z,99.9
2019-03-15T18:12:51.564Z,99.9
2019-03-15T18:17:54.013Z,99.9
2019-03-15T18:22:56.501Z,99.9
2019-03-15T18:27:58.994Z,99.9
2019-03-15T18:33:01.495Z,99.9
2019-03-15T18:38:03.830Z,99.9
2019-03-15T18:43:06.292Z,99.9
2019-03-15T18:48:09.036Z,99.9
2019-03-15T18:53:11.205Z,99.9
2019-03-15T18:58:13.686Z,99.9
2019-03-15T19:03:16.182Z,99.9
2019-03-15T19:08:18.588Z,99.9
2019-03-15T19:13:21.037Z,99.9
2019-03-15T19:18:23.552Z,99.9
2019-03-15T19:23:25.983Z,99.9
2019-03-15T19:28:28.493Z,99.9
2019-03-15T19:33:30.865Z,99.9
2019-03-15T19:38:33.335Z,99.9
2019-03-15T19:43:35.785Z,99.9
2019-03-15T19:48:38.240Z,99.9
2019-03-15T19:53:40.731Z,99.9
2019-03-15T19:58:43.265Z,99.9
2019-03-15T20:03:45.613Z,99.9
2019-03-15T20:08:48.085Z,99.9
2019-03-15T20:13:50.552Z,99.9
2019-03-15T20:18:53.266Z,99.9
2019-03-15T20:23:55.462Z,99.9
2019-03-15T20:28:58.005Z,99.9
2019-03-15T20:34:00.345Z,99.9
2019-03-15T20:39:02.811Z,99.9
2019-03-15T20:44:05.306Z,99.9
2019-03-15T20:49:08.040Z,99.9
2019-03-15T20:54:10.204Z,99.9
2019-03-15T20:59:12.725Z,99.9
2019-03-15T21:04:15.129Z,99.9
2019-03-15T21:09:17.569Z,99.9
2019-03-15T21:14:20.023Z,99.9
2019-03-15T21:19:22.542Z,99.9
2019-03-15T21:24:24.983Z,99.9
2019-03-15T21:29:27.493Z,99.9
2019-03-15T21:34:29.864Z,99.9
2019-03-15T21:39:32.438Z,99.9
2019-03-15T21:44:34.813Z,99.9
2019-03-15T21:49:37.223Z,99.9
2019-03-15T21:54:39.697Z,99.9
2019-03-15T21:59:42.229Z,99.9
2019-03-15T22:04:44.624Z,99.9
2019-03-15T22:09:47.419Z,99.9
2019-03-15T22:14:49.518Z,99.9
2019-03-15T22:19:52.263Z,99.9
2019-03-15T22:24:54.456Z,99.9
2019-03-15T22:29:57.029Z,99.9
2019-03-15T22:34:59.357Z,99.9
2019-03-15T22:40:06.865Z,99.9
2019-03-15T22:45:04.354Z,99.9
2019-03-15T22:50:07.074Z,99.9
2019-03-15T22:55:09.266Z,99.9
2019-03-15T23:00:11.755Z,99.9
2019-03-15T23:05:14.112Z,99.9
2019-03-15T23:10:16.608Z,99.9
2019-03-15T23:15:19.032Z,99.9
2019-03-15T23:20:21.497Z,99.9
2019-03-15T23:25:23.981Z,99.9
2019-03-15T23:30:26.406Z,99.9
2019-03-15T23:35:28.875Z,99.9
2019-03-15T23:40:31.411Z,99.9
2019-03-15T23:45:33.819Z,99.9
2019-03-15T23:50:36.265Z,99.9
2019-03-15T23:55:38.776Z,99.9
